sensor_id;sensor_type;location;lat;lon;timestamp;pressure;altitude;pressure_sealevel;temperature;humidity
53526;BME280;40551;50.478;19.378;2023-02-13T00:00:54;99846.39;;;1.36;88.87
53526;BME280;40551;50.478;19.378;2023-02-13T00:03:26;99852.17;;;1.37;88.90
53526;BME280;40551;50.478;19.378;2023-02-13T00:05:58;99847.72;;;1.38;88.83
53526;BME280;40551;50.478;19.378;2023-02-13T00:08:28;99844.15;;;1.37;88.88
53526;BME280;40551;50.478;19.378;2023-02-13T00:11:00;99838.73;;;1.34;89.11
53526;BME280;40551;50.478;19.378;2023-02-13T00:13:33;99852.05;;;1.34;88.76
53526;BME280;40551;50.478;19.378;2023-02-13T00:16:06;99855.13;;;1.35;88.93
53526;BME280;40551;50.478;19.378;2023-02-13T00:18:38;99857.33;;;1.37;89.06
53526;BME280;40551;50.478;19.378;2023-02-13T00:21:11;99860.71;;;1.38;89.04
53526;BME280;40551;50.478;19.378;2023-02-13T00:23:44;99853.48;;;1.40;89.12
53526;BME280;40551;50.478;19.378;2023-02-13T00:26:16;99848.14;;;1.42;89.24
53526;BME280;40551;50.478;19.378;2023-02-13T00:28:49;99843.17;;;1.43;88.89
53526;BME280;40551;50.478;19.378;2023-02-13T00:31:20;99839.26;;;1.42;88.98
53526;BME280;40551;50.478;19.378;2023-02-13T00:33:52;99832.69;;;1.38;88.92
53526;BME280;40551;50.478;19.378;2023-02-13T00:36:24;99831.30;;;1.38;88.90
53526;BME280;40551;50.478;19.378;2023-02-13T00:38:56;99828.58;;;1.38;88.90
53526;BME280;40551;50.478;19.378;2023-02-13T00:41:29;99829.77;;;1.38;88.96
53526;BME280;40551;50.478;19.378;2023-02-13T00:44:07;99824.83;;;1.37;88.55
53526;BME280;40551;50.478;19.378;2023-02-13T00:46:39;99827.07;;;1.36;88.95
53526;BME280;40551;50.478;19.378;2023-02-13T00:49:11;99825.17;;;1.37;89.29
53526;BME280;40551;50.478;19.378;2023-02-13T00:51:43;99822.27;;;1.38;89.31
53526;BME280;40551;50.478;19.378;2023-02-13T00:54:13;99822.57;;;1.39;89.63
53526;BME280;40551;50.478;19.378;2023-02-13T00:56:46;99818.17;;;1.36;89.71
53526;BME280;40551;50.478;19.378;2023-02-13T00:59:16;99821.36;;;1.39;89.62
53526;BME280;40551;50.478;19.378;2023-02-13T01:01:48;99820.05;;;1.37;89.62
53526;BME280;40551;50.478;19.378;2023-02-13T01:04:18;99817.92;;;1.40;89.53
53526;BME280;40551;50.478;19.378;2023-02-13T01:06:50;99816.76;;;1.39;90.02
53526;BME280;40551;50.478;19.378;2023-02-13T01:09:20;99815.51;;;1.42;89.64
53526;BME280;40551;50.478;19.378;2023-02-13T01:11:52;99817.46;;;1.38;89.74
53526;BME280;40551;50.478;19.378;2023-02-13T01:14:24;99815.89;;;1.40;89.83
53526;BME280;40551;50.478;19.378;2023-02-13T01:16:54;99812.59;;;1.42;89.92
53526;BME280;40551;50.478;19.378;2023-02-13T01:19:26;99808.90;;;1.39;90.11
53526;BME280;40551;50.478;19.378;2023-02-13T01:21:56;99802.88;;;1.41;90.20
53526;BME280;40551;50.478;19.378;2023-02-13T01:24:28;99804.64;;;1.38;90.32
53526;BME280;40551;50.478;19.378;2023-02-13T01:27:02;99804.96;;;1.39;90.02
53526;BME280;40551;50.478;19.378;2023-02-13T01:29:33;99805.61;;;1.41;89.92
53526;BME280;40551;50.478;19.378;2023-02-13T01:32:05;99800.40;;;1.36;90.19
53526;BME280;40551;50.478;19.378;2023-02-13T01:34:36;99798.83;;;1.38;90.02
53526;BME280;40551;50.478;19.378;2023-02-13T01:37:08;99798.81;;;1.39;90.15
53526;BME280;40551;50.478;19.378;2023-02-13T01:39:38;99793.33;;;1.39;90.04
53526;BME280;40551;50.478;19.378;2023-02-13T01:42:15;99789.48;;;1.35;90.22
53526;BME280;40551;50.478;19.378;2023-02-13T01:44:50;99791.48;;;1.38;90.30
53526;BME280;40551;50.478;19.378;2023-02-13T01:47:27;99787.86;;;1.39;90.24
53526;BME280;40551;50.478;19.378;2023-02-13T01:50:04;99782.73;;;1.39;90.42
53526;BME280;40551;50.478;19.378;2023-02-13T01:52:39;99783.88;;;1.41;90.39
53526;BME280;40551;50.478;19.378;2023-02-13T01:55:12;99782.67;;;1.42;90.37
53526;BME280;40551;50.478;19.378;2023-02-13T01:57:47;99777.67;;;1.44;90.57
53526;BME280;40551;50.478;19.378;2023-02-13T02:00:22;99780.89;;;1.45;90.71
53526;BME280;40551;50.478;19.378;2023-02-13T02:02:56;99781.56;;;1.46;90.59
53526;BME280;40551;50.478;19.378;2023-02-13T02:05:33;99784.44;;;1.48;90.49
53526;BME280;40551;50.478;19.378;2023-02-13T02:08:08;99788.66;;;1.50;90.56
53526;BME280;40551;50.478;19.378;2023-02-13T02:10:41;99785.20;;;1.52;90.57
53526;BME280;40551;50.478;19.378;2023-02-13T02:13:18;99781.91;;;1.54;90.71
53526;BME280;40551;50.478;19.378;2023-02-13T02:15:50;99782.90;;;1.56;90.61
53526;BME280;40551;50.478;19.378;2023-02-13T02:18:23;99777.59;;;1.57;90.55
53526;BME280;40551;50.478;19.378;2023-02-13T02:21:20;99772.95;;;1.58;90.64
53526;BME280;40551;50.478;19.378;2023-02-13T02:24:20;99773.30;;;1.57;90.68
53526;BME280;40551;50.478;19.378;2023-02-13T02:27:18;99770.77;;;1.55;90.74
53526;BME280;40551;50.478;19.378;2023-02-13T02:33:11;99768.40;;;1.54;90.87
53526;BME280;40551;50.478;19.378;2023-02-13T02:35:52;99769.48;;;1.51;91.03
53526;BME280;40551;50.478;19.378;2023-02-13T02:38:42;99767.56;;;1.53;90.91
53526;BME280;40551;50.478;19.378;2023-02-13T02:41:28;99770.65;;;1.53;90.68
53526;BME280;40551;50.478;19.378;2023-02-13T02:44:31;99768.27;;;1.52;90.72
53526;BME280;40551;50.478;19.378;2023-02-13T02:47:15;99773.23;;;1.52;90.84
53526;BME280;40551;50.478;19.378;2023-02-13T02:50:18;99769.48;;;1.52;90.78
53526;BME280;40551;50.478;19.378;2023-02-13T02:52:58;99772.02;;;1.52;90.73
53526;BME280;40551;50.478;19.378;2023-02-13T02:55:45;99771.65;;;1.54;90.90
53526;BME280;40551;50.478;19.378;2023-02-13T02:58:21;99772.66;;;1.55;91.27
53526;BME280;40551;50.478;19.378;2023-02-13T03:01:15;99770.05;;;1.57;90.99
53526;BME280;40551;50.478;19.378;2023-02-13T03:04:08;99772.23;;;1.60;91.27
53526;BME280;40551;50.478;19.378;2023-02-13T03:07:05;99773.95;;;1.60;91.14
53526;BME280;40551;50.478;19.378;2023-02-13T03:09:42;99778.02;;;1.60;91.13
53526;BME280;40551;50.478;19.378;2023-02-13T03:12:37;99778.67;;;1.62;91.04
53526;BME280;40551;50.478;19.378;2023-02-13T03:15:27;99773.36;;;1.63;91.04
53526;BME280;40551;50.478;19.378;2023-02-13T03:18:00;99778.77;;;1.65;91.07
53526;BME280;40551;50.478;19.378;2023-02-13T03:20:54;99780.27;;;1.68;91.28
53526;BME280;40551;50.478;19.378;2023-02-13T03:23:50;99773.92;;;1.68;91.09
53526;BME280;40551;50.478;19.378;2023-02-13T03:26:35;99776.48;;;1.69;91.22
53526;BME280;40551;50.478;19.378;2023-02-13T03:29:27;99774.40;;;1.70;91.17
53526;BME280;40551;50.478;19.378;2023-02-13T03:32:38;99781.42;;;1.70;91.31
53526;BME280;40551;50.478;19.378;2023-02-13T03:35:23;99783.25;;;1.72;91.41
53526;BME280;40551;50.478;19.378;2023-02-13T03:38:19;99783.52;;;1.75;91.34
53526;BME280;40551;50.478;19.378;2023-02-13T03:40:59;99785.20;;;1.77;91.45
53526;BME280;40551;50.478;19.378;2023-02-13T03:43:57;99782.25;;;1.79;91.27
53526;BME280;40551;50.478;19.378;2023-02-13T03:46:35;99783.41;;;1.81;91.43
53526;BME280;40551;50.478;19.378;2023-02-13T03:49:12;99783.38;;;1.83;91.39
53526;BME280;40551;50.478;19.378;2023-02-13T03:52:08;99785.75;;;1.84;91.24
53526;BME280;40551;50.478;19.378;2023-02-13T03:54:45;99786.11;;;1.83;91.02
53526;BME280;40551;50.478;19.378;2023-02-13T03:57:37;99781.00;;;1.82;91.27
53526;BME280;40551;50.478;19.378;2023-02-13T04:00:33;99785.77;;;1.83;91.27
53526;BME280;40551;50.478;19.378;2023-02-13T04:03:12;99780.46;;;1.82;91.38
53526;BME280;40551;50.478;19.378;2023-02-13T04:05:45;99779.93;;;1.83;91.35
53526;BME280;40551;50.478;19.378;2023-02-13T04:08:19;99784.52;;;1.85;91.37
53526;BME280;40551;50.478;19.378;2023-02-13T04:10:53;99780.90;;;1.86;91.44
53526;BME280;40551;50.478;19.378;2023-02-13T04:13:32;99782.59;;;1.88;91.41
53526;BME280;40551;50.478;19.378;2023-02-13T04:16:09;99776.77;;;1.87;91.21
53526;BME280;40551;50.478;19.378;2023-02-13T04:18:43;99774.89;;;1.88;91.08
53526;BME280;40551;50.478;19.378;2023-02-13T04:21:15;99775.43;;;1.86;91.13
53526;BME280;40551;50.478;19.378;2023-02-13T04:23:47;99776.99;;;1.85;91.29
53526;BME280;40551;50.478;19.378;2023-02-13T04:26:18;99775.84;;;1.83;90.99
53526;BME280;40551;50.478;19.378;2023-02-13T04:28:49;99779.34;;;1.79;91.44
53526;BME280;40551;50.478;19.378;2023-02-13T04:31:21;99784.20;;;1.76;91.41
53526;BME280;40551;50.478;19.378;2023-02-13T04:33:53;99786.02;;;1.79;91.63
53526;BME280;40551;50.478;19.378;2023-02-13T04:36:23;99787.38;;;1.80;91.42
53526;BME280;40551;50.478;19.378;2023-02-13T04:38:54;99788.33;;;1.76;91.55
53526;BME280;40551;50.478;19.378;2023-02-13T04:41:26;99790.14;;;1.78;91.72
53526;BME280;40551;50.478;19.378;2023-02-13T04:43:56;99791.30;;;1.81;91.58
53526;BME280;40551;50.478;19.378;2023-02-13T04:46:28;99788.98;;;1.76;91.59
53526;BME280;40551;50.478;19.378;2023-02-13T04:48:58;99785.69;;;1.78;91.53
53526;BME280;40551;50.478;19.378;2023-02-13T04:51:30;99781.66;;;1.75;92.00
53526;BME280;40551;50.478;19.378;2023-02-13T04:54:00;99780.39;;;1.78;91.87
53526;BME280;40551;50.478;19.378;2023-02-13T04:56:32;99779.77;;;1.74;91.94
53526;BME280;40551;50.478;19.378;2023-02-13T04:59:02;99779.05;;;1.77;91.89
53526;BME280;40551;50.478;19.378;2023-02-13T05:01:33;99782.73;;;1.73;91.88
53526;BME280;40551;50.478;19.378;2023-02-13T05:04:05;99783.70;;;1.76;92.12
53526;BME280;40551;50.478;19.378;2023-02-13T05:06:37;99780.88;;;1.79;92.15
53526;BME280;40551;50.478;19.378;2023-02-13T05:09:08;99776.71;;;1.82;92.13
53526;BME280;40551;50.478;19.378;2023-02-13T05:11:40;99776.24;;;1.80;92.03
53526;BME280;40551;50.478;19.378;2023-02-13T05:14:10;99769.99;;;1.84;92.37
53526;BME280;40551;50.478;19.378;2023-02-13T05:16:42;99765.27;;;1.81;92.45
53526;BME280;40551;50.478;19.378;2023-02-13T05:19:12;99764.52;;;1.84;92.14
53526;BME280;40551;50.478;19.378;2023-02-13T05:21:43;99766.33;;;1.80;92.42
53526;BME280;40551;50.478;19.378;2023-02-13T05:24:33;99766.09;;;1.83;92.18
53526;BME280;40551;50.478;19.378;2023-02-13T05:27:03;99761.61;;;1.84;92.35
53526;BME280;40551;50.478;19.378;2023-02-13T05:29:34;99758.77;;;1.81;92.24
53526;BME280;40551;50.478;19.378;2023-02-13T05:32:05;99760.09;;;1.83;92.15
53526;BME280;40551;50.478;19.378;2023-02-13T05:34:37;99766.32;;;1.80;92.25
53526;BME280;40551;50.478;19.378;2023-02-13T05:37:08;99771.55;;;1.84;92.30
53526;BME280;40551;50.478;19.378;2023-02-13T05:39:38;99772.53;;;1.86;92.23
53526;BME280;40551;50.478;19.378;2023-02-13T05:42:11;99774.14;;;1.82;92.29
53526;BME280;40551;50.478;19.378;2023-02-13T05:44:43;99771.02;;;1.85;92.04
53526;BME280;40551;50.478;19.378;2023-02-13T05:47:13;99773.33;;;1.89;92.26
53526;BME280;40551;50.478;19.378;2023-02-13T05:49:44;99778.00;;;1.85;92.37
53526;BME280;40551;50.478;19.378;2023-02-13T05:52:16;99777.27;;;1.88;92.28
53526;BME280;40551;50.478;19.378;2023-02-13T05:54:46;99781.50;;;1.90;92.21
53526;BME280;40551;50.478;19.378;2023-02-13T05:57:18;99782.58;;;1.88;92.39
53526;BME280;40551;50.478;19.378;2023-02-13T05:59:48;99783.84;;;1.93;92.56
53526;BME280;40551;50.478;19.378;2023-02-13T06:02:20;99780.29;;;1.91;92.40
53526;BME280;40551;50.478;19.378;2023-02-13T06:04:50;99783.96;;;1.95;92.59
53526;BME280;40551;50.478;19.378;2023-02-13T06:07:22;99782.45;;;1.93;92.61
53526;BME280;40551;50.478;19.378;2023-02-13T06:09:52;99783.56;;;1.97;92.67
53526;BME280;40551;50.478;19.378;2023-02-13T06:12:24;99783.45;;;1.95;92.59
53526;BME280;40551;50.478;19.378;2023-02-13T06:14:55;99787.52;;;1.96;92.37
53526;BME280;40551;50.478;19.378;2023-02-13T06:17:26;99789.19;;;1.98;92.28
53526;BME280;40551;50.478;19.378;2023-02-13T06:19:57;99794.73;;;1.96;92.47
53526;BME280;40551;50.478;19.378;2023-02-13T06:22:29;99795.39;;;1.96;92.23
53526;BME280;40551;50.478;19.378;2023-02-13T06:25:01;99796.70;;;1.99;92.39
53526;BME280;40551;50.478;19.378;2023-02-13T06:27:33;99796.30;;;2.02;92.56
53526;BME280;40551;50.478;19.378;2023-02-13T06:30:06;99798.48;;;2.04;92.41
53526;BME280;40551;50.478;19.378;2023-02-13T06:32:38;99797.09;;;2.05;92.43
53526;BME280;40551;50.478;19.378;2023-02-13T06:35:08;99798.23;;;2.08;92.35
53526;BME280;40551;50.478;19.378;2023-02-13T06:37:40;99801.19;;;2.06;92.50
53526;BME280;40551;50.478;19.378;2023-02-13T06:40:15;99797.65;;;2.10;92.78
53526;BME280;40551;50.478;19.378;2023-02-13T06:42:47;99798.60;;;2.14;92.52
53526;BME280;40551;50.478;19.378;2023-02-13T06:45:17;99803.47;;;2.18;92.67
53526;BME280;40551;50.478;19.378;2023-02-13T06:47:49;99802.23;;;2.20;93.14
53526;BME280;40551;50.478;19.378;2023-02-13T06:50:21;99805.81;;;2.28;93.15
53526;BME280;40551;50.478;19.378;2023-02-13T06:52:53;99797.64;;;2.34;92.79
53526;BME280;40551;50.478;19.378;2023-02-13T06:55:23;99798.73;;;2.38;92.83
53526;BME280;40551;50.478;19.378;2023-02-13T06:57:55;99798.56;;;2.38;92.75
53526;BME280;40551;50.478;19.378;2023-02-13T07:00:26;99800.48;;;2.44;92.72
53526;BME280;40551;50.478;19.378;2023-02-13T07:03:03;99805.02;;;2.48;92.56
53526;BME280;40551;50.478;19.378;2023-02-13T07:05:37;99800.61;;;2.53;92.41
53526;BME280;40551;50.478;19.378;2023-02-13T07:08:09;99802.02;;;2.58;92.69
53526;BME280;40551;50.478;19.378;2023-02-13T07:10:41;99791.77;;;2.64;92.76
53526;BME280;40551;50.478;19.378;2023-02-13T07:13:13;99789.45;;;2.69;92.43
53526;BME280;40551;50.478;19.378;2023-02-13T07:15:45;99799.63;;;2.72;92.43
53526;BME280;40551;50.478;19.378;2023-02-13T07:18:17;99797.54;;;2.74;92.33
53526;BME280;40551;50.478;19.378;2023-02-13T07:20:47;99803.80;;;2.77;92.54
53526;BME280;40551;50.478;19.378;2023-02-13T07:23:19;99805.17;;;2.76;92.46
53526;BME280;40551;50.478;19.378;2023-02-13T07:25:49;99803.76;;;2.78;92.50
53526;BME280;40551;50.478;19.378;2023-02-13T07:28:21;99803.61;;;2.77;92.38
53526;BME280;40551;50.478;19.378;2023-02-13T07:30:51;99802.68;;;2.80;92.33
53526;BME280;40551;50.478;19.378;2023-02-13T07:33:26;99802.27;;;2.77;92.47
53526;BME280;40551;50.478;19.378;2023-02-13T07:35:57;99803.19;;;2.80;92.41
53526;BME280;40551;50.478;19.378;2023-02-13T07:38:28;99795.73;;;2.84;92.45
53526;BME280;40551;50.478;19.378;2023-02-13T07:41:00;99800.45;;;2.81;92.09
53526;BME280;40551;50.478;19.378;2023-02-13T07:43:33;99791.34;;;2.82;92.15
53526;BME280;40551;50.478;19.378;2023-02-13T07:46:03;99786.48;;;2.84;92.29
53526;BME280;40551;50.478;19.378;2023-02-13T07:48:35;99789.73;;;2.83;92.55
53526;BME280;40551;50.478;19.378;2023-02-13T07:51:07;99791.08;;;2.92;92.68
53526;BME280;40551;50.478;19.378;2023-02-13T07:53:38;99781.51;;;2.97;92.58
53526;BME280;40551;50.478;19.378;2023-02-13T07:56:09;99787.23;;;3.02;92.27
53526;BME280;40551;50.478;19.378;2023-02-13T07:58:41;99794.06;;;3.02;92.58
53526;BME280;40551;50.478;19.378;2023-02-13T08:01:15;99787.34;;;3.10;92.56
53526;BME280;40551;50.478;19.378;2023-02-13T08:03:50;99782.58;;;3.16;92.50
53526;BME280;40551;50.478;19.378;2023-02-13T08:06:22;99778.14;;;3.21;92.44
53526;BME280;40551;50.478;19.378;2023-02-13T08:08:54;99783.96;;;3.28;92.34
53526;BME280;40551;50.478;19.378;2023-02-13T08:11:40;99780.67;;;3.35;92.34
53526;BME280;40551;50.478;19.378;2023-02-13T08:14:25;99781.11;;;3.38;92.04
53526;BME280;40551;50.478;19.378;2023-02-13T08:16:59;99778.92;;;3.43;91.87
53526;BME280;40551;50.478;19.378;2023-02-13T08:19:31;99782.56;;;3.47;92.00
53526;BME280;40551;50.478;19.378;2023-02-13T08:22:01;99789.13;;;3.52;91.78
53526;BME280;40551;50.478;19.378;2023-02-13T08:24:32;99789.30;;;3.51;92.12
53526;BME280;40551;50.478;19.378;2023-02-13T08:27:04;99785.77;;;3.55;91.70
53526;BME280;40551;50.478;19.378;2023-02-13T08:29:34;99788.52;;;3.55;91.40
53526;BME280;40551;50.478;19.378;2023-02-13T08:32:06;99789.63;;;3.52;91.73
53526;BME280;40551;50.478;19.378;2023-02-13T08:34:38;99787.14;;;3.61;92.07
53526;BME280;40551;50.478;19.378;2023-02-13T08:37:08;99784.08;;;3.72;91.96
53526;BME280;40551;50.478;19.378;2023-02-13T08:39:40;99786.86;;;3.77;92.58
53526;BME280;40551;50.478;19.378;2023-02-13T08:42:10;99788.41;;;3.88;92.21
53526;BME280;40551;50.478;19.378;2023-02-13T08:44:45;99788.85;;;3.91;92.23
53526;BME280;40551;50.478;19.378;2023-02-13T08:47:16;99781.27;;;3.98;91.82
53526;BME280;40551;50.478;19.378;2023-02-13T08:49:47;99782.73;;;4.00;91.89
53526;BME280;40551;50.478;19.378;2023-02-13T08:52:19;99782.27;;;4.10;91.88
53526;BME280;40551;50.478;19.378;2023-02-13T08:54:53;99791.83;;;4.17;91.74
53526;BME280;40551;50.478;19.378;2023-02-13T08:57:23;99792.40;;;4.21;91.43
53526;BME280;40551;50.478;19.378;2023-02-13T08:59:54;99791.10;;;4.18;91.25
53526;BME280;40551;50.478;19.378;2023-02-13T09:02:25;99790.98;;;4.23;91.13
53526;BME280;40551;50.478;19.378;2023-02-13T09:04:56;99791.88;;;4.27;91.62
53526;BME280;40551;50.478;19.378;2023-02-13T09:07:26;99792.74;;;4.37;91.49
53526;BME280;40551;50.478;19.378;2023-02-13T09:09:58;99795.42;;;4.40;91.44
53526;BME280;40551;50.478;19.378;2023-02-13T09:12:30;99793.91;;;4.44;91.30
53526;BME280;40551;50.478;19.378;2023-02-13T09:15:03;99797.14;;;4.45;91.02
53526;BME280;40551;50.478;19.378;2023-02-13T09:17:35;99796.73;;;4.48;90.92
53526;BME280;40551;50.478;19.378;2023-02-13T09:20:08;99793.88;;;4.51;90.78
53526;BME280;40551;50.478;19.378;2023-02-13T09:22:42;99783.70;;;4.57;90.99
53526;BME280;40551;50.478;19.378;2023-02-13T09:25:13;99780.05;;;4.63;91.18
53526;BME280;40551;50.478;19.378;2023-02-13T09:27:45;99776.14;;;4.67;90.62
53526;BME280;40551;50.478;19.378;2023-02-13T09:30:15;99776.15;;;4.73;90.97
53526;BME280;40551;50.478;19.378;2023-02-13T09:32:53;99772.16;;;4.74;91.02
53526;BME280;40551;50.478;19.378;2023-02-13T09:35:25;99772.84;;;4.79;90.79
53526;BME280;40551;50.478;19.378;2023-02-13T09:38:00;99776.36;;;4.86;90.78
53526;BME280;40551;50.478;19.378;2023-02-13T09:40:35;99776.05;;;4.96;90.85
53526;BME280;40551;50.478;19.378;2023-02-13T09:43:14;99779.45;;;5.02;90.71
53526;BME280;40551;50.478;19.378;2023-02-13T09:45:49;99779.31;;;5.06;90.48
53526;BME280;40551;50.478;19.378;2023-02-13T09:48:28;99777.73;;;5.12;90.69
53526;BME280;40551;50.478;19.378;2023-02-13T09:51:00;99779.48;;;5.16;90.31
53526;BME280;40551;50.478;19.378;2023-02-13T09:53:32;99780.04;;;5.20;90.22
53526;BME280;40551;50.478;19.378;2023-02-13T09:56:12;99778.73;;;5.23;90.34
53526;BME280;40551;50.478;19.378;2023-02-13T09:58:48;99779.30;;;5.26;90.49
53526;BME280;40551;50.478;19.378;2023-02-13T10:01:25;99773.76;;;5.27;89.90
53526;BME280;40551;50.478;19.378;2023-02-13T10:04:22;99772.77;;;5.26;89.72
53526;BME280;40551;50.478;19.378;2023-02-13T10:07:04;99769.64;;;5.27;90.11
53526;BME280;40551;50.478;19.378;2023-02-13T10:09:37;99768.01;;;5.24;89.45
53526;BME280;40551;50.478;19.378;2023-02-13T10:12:21;99766.72;;;5.17;89.78
53526;BME280;40551;50.478;19.378;2023-02-13T10:15:11;99763.86;;;5.20;89.84
53526;BME280;40551;50.478;19.378;2023-02-13T10:17:49;99763.80;;;5.22;89.93
53526;BME280;40551;50.478;19.378;2023-02-13T10:20:30;99765.05;;;5.20;89.27
53526;BME280;40551;50.478;19.378;2023-02-13T10:23:11;99763.89;;;5.19;89.31
53526;BME280;40551;50.478;19.378;2023-02-13T10:25:49;99761.00;;;5.18;89.33
53526;BME280;40551;50.478;19.378;2023-02-13T10:28:29;99756.08;;;5.16;89.35
53526;BME280;40551;50.478;19.378;2023-02-13T10:31:06;99748.83;;;5.12;89.16
53526;BME280;40551;50.478;19.378;2023-02-13T10:33:45;99741.02;;;5.09;89.13
53526;BME280;40551;50.478;19.378;2023-02-13T10:36:20;99738.42;;;5.09;89.18
53526;BME280;40551;50.478;19.378;2023-02-13T10:38:59;99730.75;;;5.13;89.35
53526;BME280;40551;50.478;19.378;2023-02-13T10:41:41;99725.30;;;5.21;89.92
53526;BME280;40551;50.478;19.378;2023-02-13T10:44:29;99728.95;;;5.29;89.89
53526;BME280;40551;50.478;19.378;2023-02-13T10:47:11;99722.27;;;5.33;89.72
53526;BME280;40551;50.478;19.378;2023-02-13T10:49:55;99718.48;;;5.33;89.39
53526;BME280;40551;50.478;19.378;2023-02-13T10:52:34;99719.39;;;5.32;89.28
53526;BME280;40551;50.478;19.378;2023-02-13T10:55:27;99717.48;;;5.28;88.92
53526;BME280;40551;50.478;19.378;2023-02-13T10:58:05;99716.20;;;5.25;89.06
53526;BME280;40551;50.478;19.378;2023-02-13T11:00:43;99710.50;;;5.16;89.44
53526;BME280;40551;50.478;19.378;2023-02-13T11:03:21;99712.55;;;5.17;89.25
53526;BME280;40551;50.478;19.378;2023-02-13T11:05:54;99708.28;;;5.16;89.09
53526;BME280;40551;50.478;19.378;2023-02-13T11:08:31;99711.35;;;5.17;89.38
53526;BME280;40551;50.478;19.378;2023-02-13T11:11:03;99708.53;;;5.18;89.48
53526;BME280;40551;50.478;19.378;2023-02-13T11:13:57;99706.45;;;5.19;89.47
53526;BME280;40551;50.478;19.378;2023-02-13T11:16:52;99702.80;;;5.15;89.68
53526;BME280;40551;50.478;19.378;2023-02-13T11:19:30;99702.89;;;5.17;89.41
53526;BME280;40551;50.478;19.378;2023-02-13T11:22:06;99700.95;;;5.24;89.73
53526;BME280;40551;50.478;19.378;2023-02-13T11:24:40;99704.83;;;5.26;89.42
53526;BME280;40551;50.478;19.378;2023-02-13T11:27:13;99706.46;;;5.23;89.28
53526;BME280;40551;50.478;19.378;2023-02-13T11:29:54;99701.33;;;5.23;89.22
53526;BME280;40551;50.478;19.378;2023-02-13T11:32:28;99696.30;;;5.24;89.44
53526;BME280;40551;50.478;19.378;2023-02-13T11:35:19;99692.45;;;5.30;89.73
53526;BME280;40551;50.478;19.378;2023-02-13T11:41:08;99697.91;;;5.45;89.53
53526;BME280;40551;50.478;19.378;2023-02-13T11:43:47;99694.44;;;5.46;89.48
53526;BME280;40551;50.478;19.378;2023-02-13T11:46:23;99694.25;;;5.46;89.20
53526;BME280;40551;50.478;19.378;2023-02-13T11:49:02;99698.20;;;5.46;89.14
53526;BME280;40551;50.478;19.378;2023-02-13T11:51:43;99695.01;;;5.44;88.86
53526;BME280;40551;50.478;19.378;2023-02-13T11:54:35;99695.30;;;5.42;88.83
53526;BME280;40551;50.478;19.378;2023-02-13T11:57:20;99697.30;;;5.39;88.86
53526;BME280;40551;50.478;19.378;2023-02-13T11:59:53;99692.69;;;5.33;88.64
53526;BME280;40551;50.478;19.378;2023-02-13T12:02:26;99686.96;;;5.29;88.57
53526;BME280;40551;50.478;19.378;2023-02-13T12:05:16;99679.48;;;5.27;88.70
53526;BME280;40551;50.478;19.378;2023-02-13T12:07:48;99687.30;;;5.25;88.76
53526;BME280;40551;50.478;19.378;2023-02-13T12:10:24;99684.23;;;5.25;88.70
53526;BME280;40551;50.478;19.378;2023-02-13T12:13:04;99679.34;;;5.22;88.64
53526;BME280;40551;50.478;19.378;2023-02-13T12:15:37;99681.33;;;5.19;88.67
53526;BME280;40551;50.478;19.378;2023-02-13T12:18:14;99687.44;;;5.17;88.70
53526;BME280;40551;50.478;19.378;2023-02-13T12:20:56;99688.19;;;5.15;88.90
53526;BME280;40551;50.478;19.378;2023-02-13T12:23:41;99686.38;;;5.12;88.75
53526;BME280;40551;50.478;19.378;2023-02-13T12:26:25;99685.00;;;5.13;89.10
53526;BME280;40551;50.478;19.378;2023-02-13T12:29:18;99681.72;;;5.13;89.12
53526;BME280;40551;50.478;19.378;2023-02-13T12:32:03;99675.82;;;5.15;89.25
53526;BME280;40551;50.478;19.378;2023-02-13T12:37:51;99659.73;;;5.17;89.24
53526;BME280;40551;50.478;19.378;2023-02-13T12:40:52;99659.92;;;5.21;89.49
53526;BME280;40551;50.478;19.378;2023-02-13T12:43:41;99660.04;;;5.23;89.47
53526;BME280;40551;50.478;19.378;2023-02-13T12:46:19;99653.42;;;5.20;89.19
53526;BME280;40551;50.478;19.378;2023-02-13T12:48:58;99650.52;;;5.20;89.24
53526;BME280;40551;50.478;19.378;2023-02-13T12:51:42;99649.12;;;5.20;89.27
53526;BME280;40551;50.478;19.378;2023-02-13T12:54:37;99645.15;;;5.21;89.72
53526;BME280;40551;50.478;19.378;2023-02-13T12:57:22;99651.00;;;5.20;89.47
53526;BME280;40551;50.478;19.378;2023-02-13T13:00:18;99653.45;;;5.20;89.26
53526;BME280;40551;50.478;19.378;2023-02-13T13:03:03;99652.66;;;5.17;89.34
53526;BME280;40551;50.478;19.378;2023-02-13T13:05:49;99648.87;;;5.13;89.01
53526;BME280;40551;50.478;19.378;2023-02-13T13:08:52;99650.16;;;5.10;89.46
53526;BME280;40551;50.478;19.378;2023-02-13T13:11:47;99649.35;;;5.09;89.30
53526;BME280;40551;50.478;19.378;2023-02-13T13:14:28;99650.27;;;5.08;89.28
53526;BME280;40551;50.478;19.378;2023-02-13T13:17:08;99654.25;;;5.07;89.53
53526;BME280;40551;50.478;19.378;2023-02-13T13:19:50;99657.92;;;5.05;89.52
53526;BME280;40551;50.478;19.378;2023-02-13T13:22:30;99657.27;;;5.04;89.44
53526;BME280;40551;50.478;19.378;2023-02-13T13:25:11;99657.88;;;5.02;89.20
53526;BME280;40551;50.478;19.378;2023-02-13T13:27:52;99657.63;;;4.99;89.28
53526;BME280;40551;50.478;19.378;2023-02-13T13:30:29;99658.91;;;4.97;89.28
53526;BME280;40551;50.478;19.378;2023-02-13T13:33:12;99663.15;;;4.94;89.28
53526;BME280;40551;50.478;19.378;2023-02-13T13:35:54;99661.03;;;4.90;89.32
53526;BME280;40551;50.478;19.378;2023-02-13T13:38:40;99661.02;;;4.86;89.53
53526;BME280;40551;50.478;19.378;2023-02-13T13:41:16;99666.00;;;4.81;89.41
53526;BME280;40551;50.478;19.378;2023-02-13T13:44:01;99669.93;;;4.77;89.41
53526;BME280;40551;50.478;19.378;2023-02-13T16:46:28;99632.53;;;2.28;92.90
53526;BME280;40551;50.478;19.378;2023-02-13T16:49:15;99607.30;;;2.37;92.67
53526;BME280;40551;50.478;19.378;2023-02-13T16:51:52;99599.80;;;2.36;92.59
53526;BME280;40551;50.478;19.378;2023-02-13T16:54:34;99598.17;;;2.34;92.54
53526;BME280;40551;50.478;19.378;2023-02-13T16:57:20;99613.21;;;2.35;92.67
53526;BME280;40551;50.478;19.378;2023-02-13T17:00:00;99623.09;;;2.36;93.02